Time;durP1;ratioP1;P1;durP2;ratioP2;P2;SDS_P1;SDS_P2;PMS_P1;PMS_P2;Temp;Humidity;BMP_temperature;BMP_pressure;BME280_temperature;BME280_humidity;BME280_pressure;Samples;Min_cycle;Max_cycle;Signal;HPM_P1;HPM_P2
2022/05/24 00:02:14;;;;;;;8.32;5.30;;;;;;;;;;4962432;28;20027;-77
2022/05/24 00:04:40;;;;;;;8.27;6.13;;;;;;;;;;4954578;28;20039;-77
2022/05/24 00:07:06;;;;;;;8.07;5.50;;;;;;;;;;4973609;28;20042;-77
2022/05/24 00:09:32;;;;;;;7.82;5.25;;;;;;;;;;4973415;28;20033;-77
2022/05/24 00:11:58;;;;;;;8.82;5.68;;;;;;;;;;4973850;28;20114;-77
2022/05/24 00:17:09;;;;;;;7.22;5.15;;;;;;;;;;4972920;28;20086;-77
2022/05/24 00:19:35;;;;;;;6.90;5.00;;;;;;;;;;4973512;28;20471;-76
2022/05/24 00:22:01;;;;;;;8.40;5.10;;;;;;;;;;4968320;28;20030;-77
2022/05/24 00:24:28;;;;;;;7.78;5.25;;;;;;;;;;4973247;28;20110;-77
2022/05/24 00:26:54;;;;;;;8.48;5.38;;;;;;;;;;4972182;28;20341;-77
2022/05/24 00:29:20;;;;;;;8.70;5.57;;;;;;;;;;4960510;28;20035;-77
2022/05/24 00:31:47;;;;;;;9.00;5.53;;;;;;;;;;4966519;28;20101;-76
2022/05/24 00:34:13;;;;;;;8.65;5.63;;;;;;;;;;4971856;28;20621;-77
2022/05/24 00:36:39;;;;;;;8.38;5.32;;;;;;;;;;4971492;28;20089;-77
2022/05/24 00:39:05;;;;;;;8.02;5.40;;;;;;;;;;4972892;28;20117;-77
2022/05/24 00:41:35;;;;;;;7.15;5.70;;;;;;;;;;4973286;28;20055;-77
2022/05/24 00:44:21;;;;;;;7.53;5.35;;;;;;;;;;4954801;28;20042;-77
2022/05/24 00:46:47;;;;;;;6.95;5.57;;;;;;;;;;4968162;28;20058;-77
2022/05/24 00:49:32;;;;;;;8.45;5.75;;;;;;;;;;4972123;28;20031;-76
2022/05/24 00:52:09;;;;;;;7.68;5.38;;;;;;;;;;4968712;28;20037;-76
2022/05/24 00:54:35;;;;;;;8.60;5.75;;;;;;;;;;4953367;28;20504;-77
2022/05/24 00:57:01;;;;;;;7.22;5.78;;;;;;;;;;4953797;28;20019;-77
2022/05/24 00:59:49;;;;;;;8.32;5.57;;;;;;;;;;4970930;28;20053;-77
2022/05/24 01:02:15;;;;;;;10.40;6.22;;;;;;;;;;4972861;28;20030;-77
2022/05/24 01:04:41;;;;;;;11.20;7.53;;;;;;;;;;4972817;28;20070;-77
2022/05/24 01:07:07;;;;;;;8.60;5.47;;;;;;;;;;4971638;28;20062;-77
2022/05/24 01:09:46;;;;;;;7.32;5.68;;;;;;;;;;4971646;28;20038;-76
2022/05/24 01:12:16;;;;;;;9.73;6.70;;;;;;;;;;4957153;28;20027;-77
2022/05/24 01:14:42;;;;;;;9.57;5.95;;;;;;;;;;4971144;28;20062;-77
2022/05/24 01:17:08;;;;;;;8.55;5.90;;;;;;;;;;4962211;28;20118;-76
2022/05/24 01:19:43;;;;;;;9.80;6.30;;;;;;;;;;4959923;28;20069;-77
2022/05/24 01:22:22;;;;;;;8.75;6.30;;;;;;;;;;4968705;28;20050;-77
2022/05/24 01:25:11;;;;;;;10.27;7.28;;;;;;;;;;4972477;28;20027;-77
2022/05/24 01:27:37;;;;;;;9.02;6.03;;;;;;;;;;4919350;29;20051;-77
2022/05/24 01:30:04;;;;;;;9.15;6.13;;;;;;;;;;4931595;29;20071;-77
2022/05/24 01:38:03;;;;;;;7.68;6.28;;;;;;;;;;4915997;29;20043;-76
2022/05/24 01:40:29;;;;;;;8.20;6.30;;;;;;;;;;4929868;29;20147;-77
2022/05/24 01:42:55;;;;;;;9.07;6.70;;;;;;;;;;4930809;29;20110;-77
2022/05/24 01:45:25;;;;;;;8.90;6.40;;;;;;;;;;4931317;29;20103;-77
2022/05/24 01:47:53;;;;;;;8.10;6.70;;;;;;;;;;4925006;29;20028;-76
2022/05/24 01:50:22;;;;;;;7.88;6.53;;;;;;;;;;4920974;29;20042;-77
2022/05/24 01:52:50;;;;;;;9.48;6.50;;;;;;;;;;4934614;29;20078;-77
2022/05/24 01:55:20;;;;;;;7.63;5.90;;;;;;;;;;4931155;29;20410;-77
2022/05/24 01:57:48;;;;;;;8.73;5.88;;;;;;;;;;4915939;29;20068;-77
2022/05/24 02:00:14;;;;;;;10.32;6.07;;;;;;;;;;4926300;29;20036;-77
2022/05/24 02:02:41;;;;;;;8.35;6.30;;;;;;;;;;4934377;29;20446;-77
2022/05/24 02:05:08;;;;;;;8.88;6.60;;;;;;;;;;4962393;28;20050;-77
2022/05/24 02:07:34;;;;;;;8.65;6.35;;;;;;;;;;4975875;28;20126;-77
2022/05/24 02:10:00;;;;;;;8.02;6.30;;;;;;;;;;4960654;28;20023;-77
2022/05/24 02:12:32;;;;;;;9.18;5.75;;;;;;;;;;4963499;28;20403;-77
2022/05/24 02:14:58;;;;;;;9.82;6.65;;;;;;;;;;4973181;28;20023;-77
2022/05/24 02:17:30;;;;;;;8.55;6.85;;;;;;;;;;4974764;28;20473;-77
2022/05/24 02:19:57;;;;;;;9.10;6.80;;;;;;;;;;4963613;28;20409;-77
2022/05/24 02:22:25;;;;;;;9.73;6.95;;;;;;;;;;4956436;28;20679;-77
2022/05/24 02:25:18;;;;;;;9.40;7.00;;;;;;;;;;4968100;28;20507;-77
2022/05/24 02:27:46;;;;;;;8.80;7.28;;;;;;;;;;4970695;28;20152;-76
2022/05/24 02:30:13;;;;;;;8.48;6.97;;;;;;;;;;4956149;28;20038;-77
2022/05/24 02:32:39;;;;;;;9.55;6.75;;;;;;;;;;4960327;28;20085;-77
2022/05/24 02:35:05;;;;;;;10.85;7.20;;;;;;;;;;4975250;28;20113;-77
2022/05/24 02:37:31;;;;;;;9.35;7.65;;;;;;;;;;4973386;28;20023;-77
2022/05/24 02:42:42;;;;;;;8.77;7.53;;;;;;;;;;4969127;28;20187;-77
2022/05/24 02:45:08;;;;;;;8.82;7.55;;;;;;;;;;4955826;28;20114;-77
2022/05/24 02:47:34;;;;;;;11.45;7.97;;;;;;;;;;4964353;28;20035;-77
2022/05/24 02:50:00;;;;;;;9.40;7.68;;;;;;;;;;4973165;28;20035;-77
2022/05/24 02:52:26;;;;;;;9.90;7.40;;;;;;;;;;4973826;28;20481;-77
2022/05/24 02:54:52;;;;;;;9.25;7.65;;;;;;;;;;4975097;28;20027;-77
2022/05/24 02:57:18;;;;;;;9.77;7.47;;;;;;;;;;4974934;28;20027;-77
2022/05/24 02:59:44;;;;;;;11.05;9.27;;;;;;;;;;4974224;28;20524;-77
2022/05/24 03:02:11;;;;;;;11.80;8.05;;;;;;;;;;4968081;28;20057;-77
2022/05/24 03:04:37;;;;;;;12.27;8.18;;;;;;;;;;4961993;28;20033;-76
2022/05/24 03:09:48;;;;;;;15.73;8.90;;;;;;;;;;4975073;28;20046;-77
2022/05/24 03:14:59;;;;;;;10.30;7.63;;;;;;;;;;4972310;28;20074;-77
2022/05/24 03:17:25;;;;;;;9.55;7.40;;;;;;;;;;4961146;28;20482;-77
2022/05/24 03:19:51;;;;;;;8.40;7.30;;;;;;;;;;4972798;28;20489;-77
2022/05/24 03:22:17;;;;;;;10.43;7.90;;;;;;;;;;4968368;28;20069;-77
2022/05/24 03:24:44;;;;;;;11.85;7.20;;;;;;;;;;4972350;28;21251;-77
2022/05/24 03:27:13;;;;;;;10.82;7.70;;;;;;;;;;4978789;28;20039;-77
2022/05/24 03:29:39;;;;;;;11.52;7.70;;;;;;;;;;4960171;28;20026;-77
2022/05/24 03:32:06;;;;;;;13.23;8.07;;;;;;;;;;4974238;28;20037;-77
2022/05/24 03:34:32;;;;;;;9.60;7.53;;;;;;;;;;4973951;28;20030;-76
2022/05/24 03:36:58;;;;;;;11.02;7.65;;;;;;;;;;4972109;28;20031;-77
2022/05/24 03:39:24;;;;;;;11.20;8.05;;;;;;;;;;4974102;28;20489;-76
2022/05/24 03:41:50;;;;;;;13.80;8.20;;;;;;;;;;4974898;28;20038;-77
2022/05/24 03:44:16;;;;;;;10.18;7.60;;;;;;;;;;4970343;28;20035;-76
2022/05/24 03:46:42;;;;;;;10.25;7.50;;;;;;;;;;4971924;28;20047;-77
2022/05/24 03:49:09;;;;;;;13.93;9.18;;;;;;;;;;4965872;28;20085;-77
2022/05/24 03:51:35;;;;;;;10.25;7.60;;;;;;;;;;4964757;28;20063;-77
2022/05/24 03:54:01;;;;;;;9.25;7.65;;;;;;;;;;4958841;28;20039;-77
2022/05/24 03:56:27;;;;;;;11.32;8.80;;;;;;;;;;4962560;28;20026;-76
2022/05/24 03:58:53;;;;;;;10.32;8.20;;;;;;;;;;4966264;28;20039;-77
2022/05/24 04:01:19;;;;;;;21.98;10.10;;;;;;;;;;4970492;28;20038;-77
2022/05/24 04:03:45;;;;;;;18.00;9.60;;;;;;;;;;4973513;28;20030;-77
2022/05/24 04:06:11;;;;;;;11.52;8.13;;;;;;;;;;4965461;28;20405;-77
2022/05/24 04:08:37;;;;;;;10.30;8.43;;;;;;;;;;4973141;28;20112;-76
2022/05/24 04:11:05;;;;;;;14.40;8.88;;;;;;;;;;4970810;28;20090;-77
2022/05/24 04:13:31;;;;;;;15.27;8.77;;;;;;;;;;4970705;28;20082;-76
2022/05/24 04:15:57;;;;;;;9.30;7.63;;;;;;;;;;4963202;28;20444;-77
2022/05/24 04:18:23;;;;;;;11.85;8.10;;;;;;;;;;4962134;28;20102;-76
2022/05/24 04:20:49;;;;;;;10.88;7.28;;;;;;;;;;4958093;28;20054;-76
2022/05/24 04:23:17;;;;;;;10.90;7.18;;;;;;;;;;4965573;28;20031;-77
2022/05/24 04:25:43;;;;;;;15.95;8.00;;;;;;;;;;4952732;28;20545;-76
2022/05/24 04:28:09;;;;;;;11.05;7.75;;;;;;;;;;4970312;28;20069;-76
2022/05/24 04:30:35;;;;;;;9.70;6.50;;;;;;;;;;4972569;28;20030;-77
2022/05/24 04:33:01;;;;;;;9.48;6.93;;;;;;;;;;4970867;28;20524;-77
2022/05/24 04:35:27;;;;;;;12.20;6.93;;;;;;;;;;4975965;28;20027;-77
2022/05/24 04:37:53;;;;;;;11.65;7.60;;;;;;;;;;4973951;28;20041;-77
2022/05/24 04:40:19;;;;;;;9.10;6.93;;;;;;;;;;4979855;28;20031;-76
2022/05/24 04:42:45;;;;;;;11.15;6.30;;;;;;;;;;4971431;28;20077;-77
2022/05/24 04:45:14;;;;;;;10.25;7.40;;;;;;;;;;4972355;28;20035;-77
2022/05/24 04:47:40;;;;;;;9.52;6.85;;;;;;;;;;4971476;28;20038;-76
2022/05/24 04:50:08;;;;;;;9.77;7.03;;;;;;;;;;4972791;28;20034;-76
2022/05/24 04:52:36;;;;;;;9.57;7.30;;;;;;;;;;4969922;28;20031;-76
2022/05/24 04:55:03;;;;;;;11.18;7.47;;;;;;;;;;4960935;28;20023;-76
2022/05/24 04:57:29;;;;;;;11.48;7.63;;;;;;;;;;4965214;28;20065;-76
2022/05/24 04:59:55;;;;;;;11.82;7.82;;;;;;;;;;4972478;28;20444;-77
2022/05/24 05:02:22;;;;;;;11.70;7.50;;;;;;;;;;4960874;28;20402;-77
2022/05/24 05:04:48;;;;;;;10.43;6.72;;;;;;;;;;4965305;28;20031;-76
2022/05/24 05:07:19;;;;;;;9.50;6.55;;;;;;;;;;4967945;28;20448;-77
2022/05/24 05:09:46;;;;;;;8.80;6.63;;;;;;;;;;4964030;28;20114;-76
2022/05/24 05:12:12;;;;;;;10.80;7.47;;;;;;;;;;4966668;28;20122;-77
2022/05/24 05:14:39;;;;;;;8.40;7.32;;;;;;;;;;4962794;28;20030;-76
2022/05/24 05:17:05;;;;;;;9.38;6.78;;;;;;;;;;4966342;28;20019;-77
2022/05/24 05:19:32;;;;;;;10.43;7.68;;;;;;;;;;4963808;28;20035;-76
2022/05/24 05:21:59;;;;;;;9.88;7.85;;;;;;;;;;4960981;28;20023;-77
2022/05/24 05:24:25;;;;;;;9.43;7.35;;;;;;;;;;4964758;28;20027;-75
2022/05/24 05:26:51;;;;;;;13.70;7.90;;;;;;;;;;4957282;28;20075;-76
2022/05/24 05:31:16;;;;;;;13.35;9.30;;;;;;;;;;4965289;28;20378;-76
2022/05/24 05:32:03;;;;;;;12.18;8.82;;;;;;;;;;4970601;28;20039;-77
2022/05/24 05:34:29;;;;;;;10.57;8.38;;;;;;;;;;4971464;28;20121;-77
2022/05/24 05:36:55;;;;;;;10.73;8.35;;;;;;;;;;4972582;28;20437;-76
2022/05/24 05:39:21;;;;;;;15.35;10.13;;;;;;;;;;4972267;28;20491;-77
2022/05/24 05:41:47;;;;;;;13.75;9.80;;;;;;;;;;4972146;28;20027;-77
2022/05/24 05:44:13;;;;;;;11.80;9.13;;;;;;;;;;4975441;28;20034;-76
2022/05/24 05:46:39;;;;;;;11.15;9.35;;;;;;;;;;4962237;28;20042;-76
2022/05/24 05:49:05;;;;;;;11.35;9.20;;;;;;;;;;4959662;28;20035;-76
2022/05/24 05:51:31;;;;;;;27.02;12.60;;;;;;;;;;4964974;28;20393;-77
2022/05/24 05:53:57;;;;;;;10.48;8.68;;;;;;;;;;4958952;28;20024;-77
2022/05/24 05:56:23;;;;;;;13.75;8.48;;;;;;;;;;4963718;28;20593;-77
2022/05/24 05:58:49;;;;;;;11.40;8.35;;;;;;;;;;4968866;28;20035;-77
2022/05/24 06:01:20;;;;;;;10.88;8.50;;;;;;;;;;4972168;28;20034;-77
2022/05/24 06:03:46;;;;;;;11.27;8.18;;;;;;;;;;4957595;28;20537;-77
2022/05/24 06:06:16;;;;;;;11.95;8.65;;;;;;;;;;4964172;28;20404;-77
2022/05/24 06:14:30;;;;;;;14.45;8.30;;;;;;;;;;4971405;28;19956;-77
2022/05/24 06:16:56;;;;;;;9.90;7.22;;;;;;;;;;4954535;28;20046;-76
2022/05/24 06:19:22;;;;;;;9.93;7.72;;;;;;;;;;4967040;28;20470;-76
2022/05/24 06:21:48;;;;;;;10.43;8.00;;;;;;;;;;4968964;28;21476;-78
2022/05/24 06:24:15;;;;;;;12.85;7.93;;;;;;;;;;4972088;28;20090;-77
2022/05/24 06:26:41;;;;;;;13.18;7.35;;;;;;;;;;4970939;28;20089;-76
2022/05/24 06:29:07;;;;;;;10.10;8.23;;;;;;;;;;4960543;28;20489;-77
2022/05/24 06:31:33;;;;;;;9.15;7.65;;;;;;;;;;4970826;28;20023;-77
2022/05/24 06:33:59;;;;;;;11.38;7.53;;;;;;;;;;4970412;28;20030;-77
2022/05/24 06:36:25;;;;;;;9.45;7.07;;;;;;;;;;4967677;28;20023;-77
2022/05/24 06:38:51;;;;;;;11.07;7.70;;;;;;;;;;4972551;28;20034;-78
2022/05/24 06:41:17;;;;;;;11.82;7.90;;;;;;;;;;4972531;28;20038;-76
2022/05/24 06:43:43;;;;;;;11.68;7.35;;;;;;;;;;4968614;28;20027;-77
2022/05/24 06:46:09;;;;;;;10.88;8.77;;;;;;;;;;4974899;28;20027;-77
2022/05/24 06:48:40;;;;;;;10.50;7.88;;;;;;;;;;4971739;28;20177;-78
2022/05/24 06:51:17;;;;;;;11.93;8.27;;;;;;;;;;4971855;28;20432;-76
2022/05/24 06:53:44;;;;;;;11.57;8.38;;;;;;;;;;4971067;28;20027;-76
2022/05/24 06:56:10;;;;;;;11.52;7.95;;;;;;;;;;4973684;28;20386;-76
2022/05/24 06:58:37;;;;;;;15.18;8.05;;;;;;;;;;4973830;28;20540;-76
2022/05/24 07:03:48;;;;;;;10.82;7.38;;;;;;;;;;4970398;28;20034;-76
2022/05/24 07:06:15;;;;;;;9.63;7.53;;;;;;;;;;4970636;28;20022;-76
2022/05/24 07:08:42;;;;;;;10.85;7.57;;;;;;;;;;4967964;28;20502;-76
2022/05/24 07:11:08;;;;;;;9.75;7.65;;;;;;;;;;4961604;28;20560;-75
2022/05/24 07:13:34;;;;;;;11.80;7.18;;;;;;;;;;4974570;28;20027;-76
2022/05/24 07:16:00;;;;;;;8.82;6.90;;;;;;;;;;4972991;28;20401;-76
2022/05/24 07:18:26;;;;;;;11.48;7.00;;;;;;;;;;4971149;28;20030;-76
2022/05/24 07:20:52;;;;;;;8.82;7.30;;;;;;;;;;4974521;28;20081;-76
2022/05/24 07:23:20;;;;;;;10.70;8.15;;;;;;;;;;4974669;28;20054;-76
2022/05/24 07:25:47;;;;;;;10.73;7.65;;;;;;;;;;4973512;28;20484;-77
2022/05/24 07:28:15;;;;;;;11.13;7.00;;;;;;;;;;4976839;28;20508;-76
2022/05/24 07:30:42;;;;;;;13.60;7.65;;;;;;;;;;4994100;28;20022;-76
2022/05/24 07:33:09;;;;;;;11.18;7.63;;;;;;;;;;4993574;28;20062;-76
2022/05/24 07:35:35;;;;;;;12.02;7.75;;;;;;;;;;4974422;28;20034;-76
2022/05/24 07:38:01;;;;;;;9.80;7.05;;;;;;;;;;4974349;28;20501;-76
2022/05/24 07:46:06;;;;;;;8.70;6.50;;;;;;;;;;4981452;28;20059;-77
2022/05/24 07:48:34;;;;;;;9.13;6.70;;;;;;;;;;4974409;28;20019;-75
2022/05/24 07:51:00;;;;;;;10.88;7.50;;;;;;;;;;4974400;28;20388;-77
2022/05/24 07:53:26;;;;;;;10.50;7.85;;;;;;;;;;4956658;28;20023;-76
2022/05/24 07:55:54;;;;;;;9.68;7.10;;;;;;;;;;4963318;28;20054;-77
2022/05/24 07:58:20;;;;;;;9.80;7.10;;;;;;;;;;4954334;28;20034;-76
2022/05/24 08:00:47;;;;;;;9.95;7.25;;;;;;;;;;4970067;28;20035;-76
2022/05/24 08:03:13;;;;;;;12.18;6.95;;;;;;;;;;4973867;28;20050;-76
2022/05/24 08:05:39;;;;;;;11.75;7.32;;;;;;;;;;4968139;28;20066;-77
2022/05/24 08:08:07;;;;;;;10.50;7.57;;;;;;;;;;4954778;28;20031;-76
2022/05/24 08:10:33;;;;;;;9.32;8.00;;;;;;;;;;4959784;28;20567;-76
2022/05/24 08:13:02;;;;;;;9.52;7.38;;;;;;;;;;4954322;28;20035;-76
2022/05/24 08:15:30;;;;;;;9.38;8.18;;;;;;;;;;4965577;28;20042;-77
2022/05/24 08:17:56;;;;;;;9.38;7.53;;;;;;;;;;4973492;28;20018;-76
2022/05/24 08:20:22;;;;;;;10.80;7.70;;;;;;;;;;4958341;28;20501;-76
2022/05/24 08:22:48;;;;;;;12.00;8.07;;;;;;;;;;4954454;28;20076;-76
2022/05/24 08:25:14;;;;;;;9.90;8.30;;;;;;;;;;4972609;28;20035;-76
2022/05/24 08:27:40;;;;;;;9.68;7.93;;;;;;;;;;4973473;28;20050;-76
2022/05/24 08:30:07;;;;;;;11.05;8.18;;;;;;;;;;4972619;28;20039;-78
2022/05/24 08:32:34;;;;;;;10.40;8.60;;;;;;;;;;4954347;28;20035;-76
2022/05/24 08:35:00;;;;;;;11.98;8.65;;;;;;;;;;4953749;28;20027;-76
2022/05/24 08:37:26;;;;;;;11.48;9.60;;;;;;;;;;4956782;28;20045;-77
2022/05/24 08:39:57;;;;;;;12.80;9.50;;;;;;;;;;4972640;28;20019;-76
2022/05/24 08:42:27;;;;;;;12.48;9.98;;;;;;;;;;4973074;28;20082;-78
2022/05/24 08:50:37;;;;;;;10.93;8.48;;;;;;;;;;4972012;28;20097;-76
2022/05/24 08:53:05;;;;;;;14.80;10.30;;;;;;;;;;4972311;28;20082;-76
2022/05/24 08:55:32;;;;;;;11.75;9.02;;;;;;;;;;4972999;28;20081;-77
2022/05/24 08:57:59;;;;;;;11.30;9.27;;;;;;;;;;4971273;28;20027;-78
2022/05/24 09:00:30;;;;;;;11.60;8.48;;;;;;;;;;4972591;28;20021;-77
2022/05/24 09:02:56;;;;;;;10.63;9.20;;;;;;;;;;4972339;28;20034;-76
2022/05/24 09:05:29;;;;;;;12.68;8.57;;;;;;;;;;4972197;28;20030;-76
2022/05/24 09:08:03;;;;;;;10.73;8.20;;;;;;;;;;4972797;28;20038;-77
2022/05/24 09:10:35;;;;;;;12.25;8.77;;;;;;;;;;4971938;28;20027;-76
2022/05/24 09:13:10;;;;;;;10.70;8.80;;;;;;;;;;4972523;28;20027;-76
2022/05/24 09:16:03;;;;;;;10.70;8.18;;;;;;;;;;4964679;28;20029;-77
2022/05/24 09:18:28;;;;;;;11.15;8.48;;;;;;;;;;4969510;28;20043;-77
2022/05/24 09:20:54;;;;;;;10.95;8.65;;;;;;;;;;4972651;28;20487;-78
2022/05/24 09:23:39;;;;;;;11.32;8.13;;;;;;;;;;4972680;28;20025;-78
2022/05/24 09:26:05;;;;;;;11.05;7.85;;;;;;;;;;4954511;28;20042;-77
2022/05/24 09:28:42;;;;;;;10.30;8.07;;;;;;;;;;4954146;28;20421;-77
2022/05/24 09:31:09;;;;;;;8.30;7.40;;;;;;;;;;4971266;28;20113;-77
2022/05/24 09:33:39;;;;;;;11.63;10.35;;;;;;;;;;4972175;28;20035;-77
2022/05/24 09:36:05;;;;;;;12.95;8.95;;;;;;;;;;4971873;28;20058;-77
2022/05/24 09:38:36;;;;;;;10.68;8.70;;;;;;;;;;4972218;28;20033;-77
2022/05/24 09:41:10;;;;;;;9.50;7.90;;;;;;;;;;4970917;28;20136;-77
2022/05/24 09:43:39;;;;;;;11.27;8.75;;;;;;;;;;4972083;28;20485;-77
2022/05/24 09:46:23;;;;;;;10.73;9.10;;;;;;;;;;4968912;28;20057;-77
2022/05/24 09:48:58;;;;;;;16.90;8.88;;;;;;;;;;4972439;28;20483;-77
2022/05/24 09:51:42;;;;;;;11.88;8.50;;;;;;;;;;4972403;28;20556;-77
2022/05/24 09:54:16;;;;;;;13.65;9.73;;;;;;;;;;4971096;28;20031;-76
2022/05/24 09:56:58;;;;;;;10.07;7.72;;;;;;;;;;4968347;28;20031;-77
2022/05/24 09:59:26;;;;;;;9.57;8.10;;;;;;;;;;4965195;28;20035;-77
2022/05/24 10:01:53;;;;;;;11.95;8.13;;;;;;;;;;4972074;28;20023;-76
2022/05/24 10:04:25;;;;;;;8.40;7.15;;;;;;;;;;4970551;28;20038;-77
2022/05/24 10:07:02;;;;;;;9.60;8.35;;;;;;;;;;4963034;28;20038;-77
2022/05/24 10:09:34;;;;;;;11.02;8.20;;;;;;;;;;4954680;28;20073;-77
2022/05/24 10:12:06;;;;;;;8.93;7.47;;;;;;;;;;4960710;28;20082;-76
2022/05/24 10:14:48;;;;;;;10.00;7.67;;;;;;;;;;4976006;28;20034;-78
2022/05/24 10:17:16;;;;;;;;;;;;;;;;;;4976401;28;20023;-77
2022/05/24 10:20:00;;;;;;;8.95;7.95;;;;;;;;;;4974855;28;20004;-78
2022/05/24 10:22:37;;;;;;;11.05;7.85;;;;;;;;;;4975810;28;20114;-78
2022/05/24 10:25:11;;;;;;;8.93;7.95;;;;;;;;;;4969720;28;20027;-77
2022/05/24 10:27:44;;;;;;;10.73;8.00;;;;;;;;;;4966964;28;20054;-77
2022/05/24 10:30:13;;;;;;;9.35;8.18;;;;;;;;;;4975246;28;20031;-78
2022/05/24 10:38:44;;;;;;;9.93;7.93;;;;;;;;;;4975564;28;20030;-77
2022/05/24 10:41:15;;;;;;;13.00;9.32;;;;;;;;;;4974776;28;20046;-76
2022/05/24 10:43:59;;;;;;;10.13;8.43;;;;;;;;;;4975089;28;20377;-76
2022/05/24 10:46:33;;;;;;;11.52;7.80;;;;;;;;;;4974441;28;20027;-77
2022/05/24 10:49:21;;;;;;;10.30;7.50;;;;;;;;;;4974501;28;20544;-77
2022/05/24 10:51:51;;;;;;;9.35;7.55;;;;;;;;;;4975004;28;20114;-79
2022/05/24 10:54:20;;;;;;;9.30;6.68;;;;;;;;;;4974572;28;20082;-77
2022/05/24 10:56:52;;;;;;;9.32;7.40;;;;;;;;;;4971474;28;20067;-77
2022/05/24 10:59:41;;;;;;;9.43;7.85;;;;;;;;;;4975018;28;20026;-77
2022/05/24 11:02:21;;;;;;;8.90;7.03;;;;;;;;;;4975149;28;20022;-76
2022/05/24 11:05:00;;;;;;;8.35;6.90;;;;;;;;;;4974085;28;20039;-78
2022/05/24 11:07:26;;;;;;;9.48;6.82;;;;;;;;;;4974439;28;20030;-78
2022/05/24 11:10:09;;;;;;;9.45;7.55;;;;;;;;;;4974917;28;20082;-79
2022/05/24 11:12:38;;;;;;;9.20;7.13;;;;;;;;;;4955624;29;20023;-78
2022/05/24 11:15:06;;;;;;;11.75;7.25;;;;;;;;;;4963767;28;20436;-77
2022/05/24 11:17:32;;;;;;;11.57;7.25;;;;;;;;;;4955587;28;20027;-77
2022/05/24 11:19:59;;;;;;;10.07;7.10;;;;;;;;;;4956196;28;20115;-77
2022/05/24 11:22:28;;;;;;;9.38;7.43;;;;;;;;;;4956973;28;20023;-77
2022/05/24 11:25:04;;;;;;;8.93;7.35;;;;;;;;;;4963293;28;20030;-77
2022/05/24 11:27:35;;;;;;;10.05;7.43;;;;;;;;;;4956169;28;20043;-77
2022/05/24 11:30:10;;;;;;;8.73;7.00;;;;;;;;;;4958206;28;20031;-77
2022/05/24 11:32:38;;;;;;;9.10;7.30;;;;;;;;;;4968166;28;20035;-78
2022/05/24 11:35:10;;;;;;;8.20;7.15;;;;;;;;;;4958040;28;20453;-78
2022/05/24 11:37:38;;;;;;;8.98;6.82;;;;;;;;;;4973178;28;20023;-77
2022/05/24 11:40:31;;;;;;;8.85;6.60;;;;;;;;;;4965962;28;20050;-78
2022/05/24 11:42:58;;;;;;;9.45;6.60;;;;;;;;;;4966409;28;20031;-80
2022/05/24 11:45:31;;;;;;;10.10;6.78;;;;;;;;;;4977282;28;20050;-77
2022/05/24 11:48:02;;;;;;;9.82;6.68;;;;;;;;;;4983427;28;20023;-78
2022/05/24 11:50:31;;;;;;;8.23;6.22;;;;;;;;;;4972738;28;20444;-78
2022/05/24 11:53:05;;;;;;;9.55;6.10;;;;;;;;;;4968259;28;20031;-77
2022/05/24 11:55:43;;;;;;;9.55;6.55;;;;;;;;;;4963603;28;20034;-76
2022/05/24 11:58:21;;;;;;;8.73;6.55;;;;;;;;;;4954685;28;20031;-76
2022/05/24 12:00:56;;;;;;;9.45;6.40;;;;;;;;;;4973275;28;20433;-77
2022/05/24 12:09:12;;;;;;;9.68;6.60;;;;;;;;;;4958296;28;20077;-76
2022/05/24 12:11:39;;;;;;;8.45;6.43;;;;;;;;;;4973185;28;20031;-77
2022/05/24 12:14:14;;;;;;;10.82;6.95;;;;;;;;;;4970574;28;20052;-77
2022/05/24 12:16:48;;;;;;;8.27;6.78;;;;;;;;;;4958746;28;20024;-77
2022/05/24 12:19:33;;;;;;;7.53;6.25;;;;;;;;;;4975684;28;20027;-77
2022/05/24 12:22:01;;;;;;;8.80;6.28;;;;;;;;;;4973591;28;20098;-76
2022/05/24 12:24:29;;;;;;;7.28;5.88;;;;;;;;;;4971288;28;20037;-76
2022/05/24 12:27:19;;;;;;;9.38;6.35;;;;;;;;;;4968759;28;20485;-77
2022/05/24 12:29:48;;;;;;;10.73;6.90;;;;;;;;;;4962060;28;20075;-77
2022/05/24 12:32:16;;;;;;;10.35;6.78;;;;;;;;;;4953406;28;20046;-77
2022/05/24 12:34:42;;;;;;;10.07;7.00;;;;;;;;;;4954015;28;20027;-77
2022/05/24 12:37:29;;;;;;;9.20;6.63;;;;;;;;;;4956156;28;20019;-77
2022/05/24 12:40:10;;;;;;;9.00;7.20;;;;;;;;;;4967617;28;20031;-76
2022/05/24 12:42:43;;;;;;;10.43;7.65;;;;;;;;;;4972495;28;20175;-76
2022/05/24 12:45:09;;;;;;;8.82;7.15;;;;;;;;;;4973092;28;20030;-77
2022/05/24 12:47:36;;;;;;;7.90;6.68;;;;;;;;;;4972179;28;20031;-77
2022/05/24 12:50:02;;;;;;;9.80;7.43;;;;;;;;;;4972331;28;20397;-76
2022/05/24 12:52:29;;;;;;;9.63;6.88;;;;;;;;;;4971462;28;20051;-77
2022/05/24 12:54:57;;;;;;;8.75;7.10;;;;;;;;;;4972961;28;20393;-76
2022/05/24 12:57:27;;;;;;;8.75;7.30;;;;;;;;;;4972466;28;20018;-76
2022/05/24 12:59:53;;;;;;;10.88;7.40;;;;;;;;;;4973050;28;20102;-76
2022/05/24 13:02:19;;;;;;;7.70;6.90;;;;;;;;;;4966185;28;20103;-78
2022/05/24 13:04:45;;;;;;;8.02;6.90;;;;;;;;;;4953721;28;20082;-76
2022/05/24 13:07:20;;;;;;;10.50;7.95;;;;;;;;;;4965960;28;20042;-76
2022/05/24 13:09:48;;;;;;;9.50;7.20;;;;;;;;;;4973118;28;20034;-81
2022/05/24 13:12:14;;;;;;;9.05;7.10;;;;;;;;;;4971891;28;20557;-76
2022/05/24 13:14:45;;;;;;;11.73;7.38;;;;;;;;;;4971901;28;20081;-76
2022/05/24 13:17:12;;;;;;;9.85;7.30;;;;;;;;;;4972947;28;20030;-76
2022/05/24 13:19:43;;;;;;;9.20;6.85;;;;;;;;;;4972370;28;20058;-76
2022/05/24 13:22:09;;;;;;;8.23;6.30;;;;;;;;;;4968487;28;20106;-77
2022/05/24 13:24:47;;;;;;;9.20;7.22;;;;;;;;;;4958183;28;20054;-76
2022/05/24 13:27:13;;;;;;;9.50;6.57;;;;;;;;;;4972200;28;20046;-77
2022/05/24 13:35:08;;;;;;;9.23;7.15;;;;;;;;;;4972311;28;20054;-76
2022/05/24 13:37:49;;;;;;;10.23;8.10;;;;;;;;;;4972045;28;20026;-76
2022/05/24 13:40:15;;;;;;;10.65;8.25;;;;;;;;;;4972618;28;20077;-77
2022/05/24 13:42:53;;;;;;;13.10;8.48;;;;;;;;;;4970156;28;20025;-76
2022/05/24 13:45:28;;;;;;;8.93;7.97;;;;;;;;;;4976669;28;20030;-77
2022/05/24 13:47:56;;;;;;;9.43;7.43;;;;;;;;;;4976412;28;20031;-76
2022/05/24 13:50:22;;;;;;;10.25;9.20;;;;;;;;;;4975891;28;20456;-76
2022/05/24 13:53:00;;;;;;;11.02;9.38;;;;;;;;;;4968002;28;20035;-77
2022/05/24 13:55:38;;;;;;;10.73;8.30;;;;;;;;;;4962838;28;20050;-76
2022/05/24 13:58:05;;;;;;;12.02;7.82;;;;;;;;;;4957128;28;20031;-77
2022/05/24 14:00:43;;;;;;;9.52;7.80;;;;;;;;;;4958844;28;20382;-78
2022/05/24 14:03:17;;;;;;;9.23;7.50;;;;;;;;;;4957141;28;20058;-78
2022/05/24 14:05:44;;;;;;;11.68;7.85;;;;;;;;;;4964941;28;20023;-76
2022/05/24 14:08:10;;;;;;;10.07;7.97;;;;;;;;;;4974841;28;20374;-76
2022/05/24 14:10:37;;;;;;;12.88;8.38;;;;;;;;;;4975213;28;20030;-77
2022/05/24 14:13:10;;;;;;;9.07;7.00;;;;;;;;;;4975912;28;20038;-80
2022/05/24 14:15:40;;;;;;;10.60;7.32;;;;;;;;;;4974748;28;20030;-77
2022/05/24 14:18:06;;;;;;;11.40;7.22;;;;;;;;;;4974475;28;20023;-76
2022/05/24 14:20:32;;;;;;;8.13;6.20;;;;;;;;;;4974747;28;20019;-77
2022/05/24 14:22:58;;;;;;;8.27;6.07;;;;;;;;;;4975557;28;20378;-76
2022/05/24 14:25:25;;;;;;;8.85;6.30;;;;;;;;;;4975936;28;20027;-77
2022/05/24 14:27:51;;;;;;;8.88;6.47;;;;;;;;;;4963891;28;20070;-76
2022/05/24 14:30:17;;;;;;;10.07;7.55;;;;;;;;;;4973199;28;20054;-76
2022/05/24 14:32:43;;;;;;;11.25;7.18;;;;;;;;;;4975738;28;20027;-76
2022/05/24 14:35:10;;;;;;;10.32;6.82;;;;;;;;;;4975049;28;20461;-76
2022/05/24 14:37:36;;;;;;;9.40;6.88;;;;;;;;;;4975722;28;20031;-76
2022/05/24 14:40:03;;;;;;;9.43;7.07;;;;;;;;;;4965866;28;20113;-76
2022/05/24 14:42:32;;;;;;;9.18;7.47;;;;;;;;;;4975325;28;20019;-76
2022/05/24 14:44:59;;;;;;;9.10;7.47;;;;;;;;;;4974918;28;20481;-77
2022/05/24 14:47:25;;;;;;;8.77;7.80;;;;;;;;;;4975398;28;20113;-76
2022/05/24 14:49:51;;;;;;;8.85;7.50;;;;;;;;;;4971909;28;20362;-76
2022/05/24 14:52:17;;;;;;;9.48;7.47;;;;;;;;;;4955773;28;20023;-77
2022/05/24 14:54:45;;;;;;;10.25;7.40;;;;;;;;;;4954689;28;20063;-77
2022/05/24 14:57:12;;;;;;;9.73;7.10;;;;;;;;;;4956067;28;20031;-76
2022/05/24 14:59:39;;;;;;;10.07;7.72;;;;;;;;;;4971629;28;20027;-76
2022/05/24 15:02:06;;;;;;;8.40;7.50;;;;;;;;;;4974818;28;20038;-76
2022/05/24 15:04:34;;;;;;;9.20;7.65;;;;;;;;;;4974956;28;20082;-76
2022/05/24 15:15:20;;;;;;;8.98;7.07;;;;;;;;;;4973899;28;20031;-78
2022/05/24 15:15:22;;;;;;;8.63;7.72;;;;;;;;;;4971951;28;20041;-76
2022/05/24 15:17:49;;;;;;;9.38;7.47;;;;;;;;;;4973874;28;20023;-76
2022/05/24 15:20:17;;;;;;;10.55;8.25;;;;;;;;;;4971678;28;20028;-78
2022/05/24 15:22:48;;;;;;;10.57;7.68;;;;;;;;;;4955358;28;20482;-76
2022/05/24 15:25:16;;;;;;;11.05;7.50;;;;;;;;;;4962272;28;20022;-76
2022/05/24 15:27:42;;;;;;;8.60;7.70;;;;;;;;;;4974054;28;20071;-76
2022/05/24 15:30:09;;;;;;;9.90;8.15;;;;;;;;;;4974161;28;20031;-76
2022/05/24 15:32:35;;;;;;;8.60;7.30;;;;;;;;;;4974370;28;20170;-76
2022/05/24 15:35:01;;;;;;;9.52;8.25;;;;;;;;;;4973654;28;20085;-77
2022/05/24 15:37:27;;;;;;;8.50;7.68;;;;;;;;;;4974331;28;20022;-78
2022/05/24 15:39:53;;;;;;;10.25;8.00;;;;;;;;;;4973947;28;20027;-76
2022/05/24 15:42:21;;;;;;;9.55;7.40;;;;;;;;;;4973536;28;20473;-76
2022/05/24 15:44:47;;;;;;;11.40;8.05;;;;;;;;;;4973360;28;20035;-78
2022/05/24 15:47:13;;;;;;;9.48;7.50;;;;;;;;;;4966970;28;20033;-76